Time;durP1;ratioP1;P1;durP2;ratioP2;P2;SDS_P1;SDS_P2;PMS_P1;PMS_P2;Temp;Humidity;BMP_temperature;BMP_pressure;BME280_temperature;BME280_humidity;BME280_pressure;Samples;Min_cycle;Max_cycle;Signal;HPM_P1;HPM_P2
2022/10/31 00:01:02;;;;;;;53.38;30.05;;;;;;;14.45;83.25;101392.56;5044062;28;20045;-72
2022/10/31 00:03:28;;;;;;;45.15;29.83;;;;;;;14.33;84.01;101385.34;5045701;28;20059;-71
2022/10/31 00:05:56;;;;;;;35.47;20.95;;;;;;;14.49;83.63;101398.53;5046189;28;20045;-71
2022/10/31 00:08:22;;;;;;;29.02;20.42;;;;;;;14.53;82.59;101406.19;5052638;28;20052;-71
2022/10/31 00:10:49;;;;;;;31.00;20.38;;;;;;;14.50;82.47;101401.09;5025686;28;20052;-71
2022/10/31 00:13:16;;;;;;;28.25;20.00;;;;;;;14.43;81.85;101398.88;5026671;28;20489;-71
2022/10/31 00:15:42;;;;;;;29.92;18.63;;;;;;;13.88;81.69;101407.22;5044904;28;20524;-71
2022/10/31 00:18:10;;;;;;;28.75;20.15;;;;;;;13.95;81.81;101405.09;5044872;28;20052;-71
2022/10/31 00:20:39;;;;;;;29.42;20.10;;;;;;;14.21;81.03;101401.88;5045161;28;20055;-71
2022/10/31 00:23:07;;;;;;;26.42;17.88;;;;;;;14.23;80.45;101402.63;5044617;28;20509;-71
2022/10/31 00:25:36;;;;;;;28.25;17.75;;;;;;;14.32;80.41;101402.09;5045684;28;20049;-71
2022/10/31 00:28:02;;;;;;;26.52;16.95;;;;;;;14.20;80.85;101409.84;5046098;28;20075;-71
2022/10/31 00:30:29;;;;;;;24.88;15.23;;;;;;;14.29;80.25;101402.28;5044620;28;20417;-71
2022/10/31 00:32:55;;;;;;;29.35;15.02;;;;;;;14.31;82.50;101404.81;5045332;28;20049;-71
2022/10/31 00:35:22;;;;;;;27.55;15.60;;;;;;;13.90;85.27;101415.88;5045626;28;20067;-71
2022/10/31 00:37:48;;;;;;;32.83;16.33;;;;;;;13.73;86.99;101410.69;5048378;28;20523;-71
2022/10/31 00:40:16;;;;;;;30.77;15.60;;;;;;;13.56;88.93;101408.13;5048582;28;20072;-71
2022/10/31 00:42:43;;;;;;;27.95;14.23;;;;;;;13.79;87.09;101420.88;5044140;28;20857;-71
2022/10/31 00:45:10;;;;;;;21.77;13.27;;;;;;;14.12;85.92;101421.69;5043728;28;20049;-72
2022/10/31 00:47:37;;;;;;;21.80;12.68;;;;;;;14.14;85.34;101425.09;5043471;28;20163;-72
2022/10/31 00:50:04;;;;;;;21.77;12.45;;;;;;;14.05;84.90;101422.09;5044723;28;20053;-72
2022/10/31 00:52:30;;;;;;;22.85;12.00;;;;;;;13.53;87.58;101422.28;5043798;28;20575;-71
2022/10/31 00:54:56;;;;;;;27.80;12.10;;;;;;;13.73;86.42;101420.38;5046101;28;20049;-71
2022/10/31 00:57:24;;;;;;;18.38;11.20;;;;;;;14.08;83.85;101429.84;5045174;28;20056;-71
2022/10/31 00:59:51;;;;;;;19.35;11.23;;;;;;;14.25;81.68;101424.50;5043396;28;20087;-71
2022/10/31 01:02:17;;;;;;;21.55;10.93;;;;;;;14.09;82.97;101439.47;5045575;28;20394;-71
2022/10/31 01:04:44;;;;;;;18.40;10.63;;;;;;;14.16;81.63;101432.91;5045351;28;21044;-71
2022/10/31 01:07:11;;;;;;;14.80;9.57;;;;;;;14.11;80.17;101432.34;5053973;28;20040;-71
2022/10/31 01:09:37;;;;;;;15.13;10.32;;;;;;;14.08;78.27;101438.59;5049333;28;20672;-71
2022/10/31 01:12:04;;;;;;;15.55;10.55;;;;;;;14.01;77.12;101439.03;5048099;28;20049;-71
2022/10/31 01:14:32;;;;;;;14.77;10.18;;;;;;;14.04;76.80;101447.63;5047634;28;20051;-71
2022/10/31 01:16:58;;;;;;;16.80;9.85;;;;;;;14.09;76.50;101436.81;5048679;28;20041;-72
2022/10/31 01:19:25;;;;;;;15.32;9.68;;;;;;;14.08;75.75;101437.75;5048399;28;20408;-72
2022/10/31 01:21:54;;;;;;;15.30;9.25;;;;;;;13.91;75.53;101437.84;5048412;28;20405;-72
2022/10/31 01:24:21;;;;;;;21.40;9.23;;;;;;;13.72;75.46;101439.75;5048060;28;20055;-72
2022/10/31 01:26:47;;;;;;;17.45;9.43;;;;;;;13.55;76.34;101438.88;5049301;28;20053;-72
2022/10/31 01:29:14;;;;;;;15.90;10.07;;;;;;;13.38;77.00;101436.28;5046594;28;20041;-72
2022/10/31 01:31:41;;;;;;;15.75;10.07;;;;;;;12.93;78.67;101442.09;5054600;28;20504;-72
2022/10/31 01:34:13;;;;;;;19.33;11.00;;;;;;;12.57;82.58;101441.25;5048341;28;20053;-72
2022/10/31 01:36:39;;;;;;;22.75;13.13;;;;;;;12.73;82.52;101436.09;5047196;28;20053;-72
2022/10/31 01:39:07;;;;;;;22.02;14.05;;;;;;;12.90;81.93;101442.22;5046989;28;20056;-72
2022/10/31 01:41:37;;;;;;;24.25;14.52;;;;;;;12.87;81.82;101438.91;5048746;28;20518;-72
2022/10/31 01:44:24;;;;;;;20.02;12.98;;;;;;;12.98;81.82;101440.06;5047489;28;20094;-72
2022/10/31 01:46:56;;;;;;;25.73;13.35;;;;;;;13.41;80.14;101441.41;5047085;28;20080;-71
2022/10/31 01:49:29;;;;;;;20.20;12.50;;;;;;;13.61;79.86;101446.47;5047031;28;20064;-71
2022/10/31 01:51:57;;;;;;;;;;;;;;;13.82;78.98;101448.91;5047221;28;20045;-71
2022/10/31 01:54:27;;;;;;;17.38;11.10;;;;;;;13.75;79.82;101436.94;5047006;28;19927;-71
2022/10/31 01:56:57;;;;;;;21.02;10.48;;;;;;;13.63;80.29;101444.56;5047831;28;20048;-71
2022/10/31 01:59:28;;;;;;;21.13;10.65;;;;;;;13.68;81.74;101443.47;5046278;28;20107;-71
2022/10/31 02:01:56;;;;;;;19.50;10.27;;;;;;;13.98;80.89;101452.38;5055227;28;20049;-71
2022/10/31 02:04:25;;;;;;;16.63;9.98;;;;;;;14.23;78.75;101457.19;5046531;28;20049;-71
2022/10/31 02:06:57;;;;;;;17.75;10.40;;;;;;;14.05;78.82;101454.59;5048642;28;20049;-71
2022/10/31 02:09:24;;;;;;;18.27;9.97;;;;;;;13.93;79.15;101465.81;5047167;28;20067;-71
2022/10/31 02:11:53;;;;;;;22.08;9.95;;;;;;;13.77;80.63;101461.47;5046269;28;20045;-71
2022/10/31 02:14:21;;;;;;;20.75;9.55;;;;;;;13.76;83.05;101457.09;5046580;28;20057;-71
2022/10/31 02:16:48;;;;;;;19.35;9.88;;;;;;;13.77;84.05;101462.31;5047459;28;20044;-71
2022/10/31 02:19:22;;;;;;;17.60;10.77;;;;;;;13.85;83.85;101459.28;5046550;28;20041;-71
2022/10/31 02:21:56;;;;;;;16.25;9.93;;;;;;;13.99;83.27;101464.63;5039251;28;20048;-71
2022/10/31 02:24:41;;;;;;;20.88;9.90;;;;;;;14.04;83.20;101468.72;5045951;28;20048;-71
2022/10/31 02:27:24;;;;;;;12.77;9.05;;;;;;;14.27;81.78;101477.16;5046393;28;20045;-71
2022/10/31 02:30:05;;;;;;;;;;;;;;;14.47;80.52;101469.88;5034841;28;20037;-71
2022/10/31 02:32:44;;;;;;;16.75;11.38;;;;;;;14.27;80.69;101478.00;5046960;28;20019;-71
2022/10/31 02:35:17;;;;;;;22.27;12.02;;;;;;;14.55;79.25;101480.00;5047556;28;20041;-71
2022/10/31 02:37:51;;;;;;;18.55;12.45;;;;;;;14.57;79.62;101473.69;5047102;28;20041;-72
2022/10/31 02:40:22;;;;;;;27.35;15.85;;;;;;;14.61;80.04;101472.59;5046259;28;20424;-72
2022/10/31 02:42:57;;;;;;;25.65;11.60;;;;;;;14.99;77.16;101466.88;5045491;28;20056;-72
2022/10/31 02:45:30;;;;;;;15.30;11.98;;;;;;;14.78;77.03;101470.78;5044730;28;20047;-71
2022/10/31 02:48:02;;;;;;;18.05;9.38;;;;;;;14.80;77.94;101466.25;5032712;28;20048;-71
2022/10/31 02:50:32;;;;;;;17.95;10.10;;;;;;;14.36;80.24;101472.28;5045834;28;20080;-71
2022/10/31 02:52:59;;;;;;;16.67;9.23;;;;;;;14.44;79.68;101477.97;5045956;28;20046;-71
2022/10/31 02:55:47;;;;;;;22.13;8.60;;;;;;;14.45;79.63;101474.38;5045483;28;20057;-71
2022/10/31 02:58:16;;;;;;;15.55;7.97;;;;;;;14.51;79.66;101484.59;5046208;28;20115;-71
2022/10/31 03:00:58;;;;;;;11.80;7.05;;;;;;;14.39;79.87;101495.84;5045866;28;20048;-71
2022/10/31 03:03:31;;;;;;;12.98;7.10;;;;;;;14.24;80.51;101494.00;5046327;28;20082;-71
2022/10/31 03:06:04;;;;;;;13.43;7.57;;;;;;;14.14;80.29;101491.03;5046700;28;20040;-71
2022/10/31 03:08:36;;;;;;;18.95;9.63;;;;;;;14.17;80.52;101497.06;5045479;28;20056;-72
2022/10/31 03:11:04;;;;;;;;;;;;;;;13.96;81.14;101499.94;5047313;28;20046;-71
2022/10/31 03:13:36;;;;;;;16.23;8.32;;;;;;;13.98;81.09;101507.75;5047536;28;19921;-71
2022/10/31 03:16:09;;;;;;;13.80;7.50;;;;;;;13.99;80.53;101509.47;5046434;28;20052;-71
2022/10/31 03:18:41;;;;;;;15.48;7.75;;;;;;;13.57;82.04;101513.41;5044591;28;20053;-71
2022/10/31 03:21:13;;;;;;;16.75;9.10;;;;;;;13.48;82.63;101516.56;5045365;28;20597;-71
2022/10/31 03:23:41;;;;;;;18.77;9.77;;;;;;;13.48;82.38;101510.44;5045048;28;20099;-71
2022/10/31 03:26:10;;;;;;;13.52;9.02;;;;;;;13.72;80.47;101511.78;5046455;28;20048;-71
2022/10/31 03:28:39;;;;;;;17.83;8.55;;;;;;;13.98;79.10;101523.56;5044027;28;20106;-71
2022/10/31 03:31:07;;;;;;;17.88;8.40;;;;;;;13.97;78.33;101529.78;5045423;28;20412;-71
2022/10/31 03:33:36;;;;;;;13.32;8.07;;;;;;;13.83;77.90;101527.03;5046257;28;20418;-71
2022/10/31 03:36:08;;;;;;;14.40;7.57;;;;;;;13.69;78.27;101526.91;5045314;28;20069;-71
2022/10/31 03:38:36;;;;;;;13.13;8.10;;;;;;;13.65;78.50;101534.97;5045412;28;20041;-71
2022/10/31 03:41:06;;;;;;;13.90;6.97;;;;;;;13.71;77.41;101527.69;5042985;28;20307;-71
2022/10/31 03:43:37;;;;;;;12.07;6.97;;;;;;;13.61;76.58;101536.06;5045066;28;20045;-71
2022/10/31 03:46:04;;;;;;;14.05;6.40;;;;;;;13.45;76.37;101540.38;5046019;28;20044;-71
2022/10/31 03:48:31;;;;;;;9.50;6.32;;;;;;;13.50;76.15;101537.53;5045272;28;20389;-71
2022/10/31 03:51:03;;;;;;;16.55;7.30;;;;;;;13.32;76.98;101544.59;5042649;28;20060;-71
2022/10/31 03:53:37;;;;;;;12.48;7.07;;;;;;;12.68;78.30;101539.81;5044451;28;20053;-71
2022/10/31 03:56:11;;;;;;;13.75;8.13;;;;;;;12.18;84.02;101544.81;5029339;28;20064;-71
2022/10/31 03:58:44;;;;;;;13.02;7.15;;;;;;;12.03;85.72;101552.53;5045145;28;20485;-71
2022/10/31 04:01:16;;;;;;;16.42;7.88;;;;;;;12.31;83.88;101545.06;5046265;28;20118;-71
2022/10/31 04:03:45;;;;;;;17.42;6.72;;;;;;;12.36;83.14;101558.88;5046385;28;20412;-72
2022/10/31 04:06:14;;;;;;;13.85;7.07;;;;;;;12.47;81.96;101543.44;5044063;28;20071;-72
2022/10/31 04:08:46;;;;;;;12.55;6.72;;;;;;;12.10;81.90;101551.31;5045038;28;20475;-71
2022/10/31 04:11:16;;;;;;;11.38;6.78;;;;;;;11.83;83.24;101545.50;5045165;28;20045;-71
2022/10/31 04:13:45;;;;;;;11.13;6.95;;;;;;;11.71;84.35;101551.31;5044028;28;20523;-71
2022/10/31 04:16:14;;;;;;;12.90;6.72;;;;;;;11.60;84.11;101554.34;5044621;28;20056;-71
2022/10/31 04:18:41;;;;;;;14.65;7.30;;;;;;;11.63;85.33;101554.25;5043627;28;20053;-71
2022/10/31 04:21:08;;;;;;;12.30;6.47;;;;;;;11.63;84.58;101551.63;5044883;28;20061;-72
2022/10/31 04:23:36;;;;;;;15.00;7.20;;;;;;;11.58;84.34;101553.59;5045573;28;20332;-71
2022/10/31 04:26:04;;;;;;;13.35;7.72;;;;;;;11.24;85.60;101558.53;5045902;28;20052;-71
2022/10/31 04:28:32;;;;;;;17.23;8.77;;;;;;;11.03;90.02;101560.28;5043534;28;20045;-71
2022/10/31 04:30:59;;;;;;;19.65;9.30;;;;;;;11.27;88.78;101555.78;5043879;28;20436;-71
2022/10/31 04:33:25;;;;;;;15.88;8.40;;;;;;;11.37;87.99;101564.16;5044392;28;20041;-71
2022/10/31 04:35:51;;;;;;;17.02;8.45;;;;;;;11.97;84.68;101568.56;5044959;28;20099;-71
2022/10/31 04:38:18;;;;;;;14.13;7.93;;;;;;;11.84;83.86;101567.38;5043643;28;20064;-71
2022/10/31 04:40:46;;;;;;;17.58;8.77;;;;;;;11.53;86.28;101558.16;5047775;28;20489;-71
2022/10/31 04:43:13;;;;;;;19.88;10.23;;;;;;;11.17;90.32;101557.94;5031128;28;20042;-71
2022/10/31 04:45:40;;;;;;;23.83;9.75;;;;;;;11.46;88.35;101559.34;5047629;28;20498;-71
2022/10/31 04:48:06;;;;;;;16.17;9.45;;;;;;;11.49;88.11;101556.59;5047826;28;20041;-72
2022/10/31 04:50:33;;;;;;;16.92;9.60;;;;;;;11.57;89.47;101561.50;5049660;28;20041;-72
2022/10/31 04:52:59;;;;;;;16.25;8.85;;;;;;;12.15;86.23;101559.88;5047941;28;20045;-72
2022/10/31 04:55:26;;;;;;;18.83;10.52;;;;;;;12.34;85.28;101563.34;5047997;28;20102;-72
2022/10/31 04:57:52;;;;;;;20.50;11.40;;;;;;;11.74;89.27;101568.72;5049393;28;20112;-72
2022/10/31 05:00:22;;;;;;;17.15;9.95;;;;;;;11.62;89.89;101562.19;5047757;28;20111;-72
2022/10/31 05:02:50;;;;;;;19.75;9.73;;;;;;;11.55;91.62;101566.00;5048010;28;20045;-72
2022/10/31 05:05:19;;;;;;;20.65;9.93;;;;;;;11.49;91.93;101572.34;5048579;28;20459;-72
2022/10/31 05:07:48;;;;;;;17.80;9.82;;;;;;;12.19;88.18;101579.84;5048933;28;20412;-72
2022/10/31 05:10:16;;;;;;;14.93;9.25;;;;;;;12.59;85.39;101574.47;5046857;28;20049;-72
2022/10/31 05:12:47;;;;;;;21.02;9.75;;;;;;;12.74;84.20;101572.03;5048747;28;20055;-71
2022/10/31 05:15:14;;;;;;;15.10;8.70;;;;;;;12.46;84.75;101575.06;5047915;28;20675;-72
2022/10/31 05:17:42;;;;;;;20.20;10.30;;;;;;;12.20;88.21;101571.88;5048382;28;20045;-72
2022/10/31 05:20:09;;;;;;;17.52;9.43;;;;;;;12.01;91.02;101570.16;5046517;28;20068;-71
2022/10/31 05:22:36;;;;;;;17.42;9.95;;;;;;;12.29;88.76;101580.25;5048225;28;20106;-72
2022/10/31 05:25:02;;;;;;;21.98;10.05;;;;;;;12.06;90.48;101581.28;5047659;28;20045;-72
2022/10/31 05:27:28;;;;;;;21.25;10.18;;;;;;;12.05;90.78;101583.06;5048328;28;20060;-72
2022/10/31 05:29:55;;;;;;;21.80;9.70;;;;;;;12.21;89.41;101577.97;5048822;28;21183;-72
2022/10/31 05:32:21;;;;;;;19.42;10.23;;;;;;;11.93;91.84;101588.03;5046689;28;20528;-72
2022/10/31 05:34:49;;;;;;;14.77;9.35;;;;;;;11.74;92.42;101584.47;5040092;28;20056;-71
2022/10/31 05:37:15;;;;;;;16.25;9.70;;;;;;;11.71;92.83;101580.22;5048740;28;20049;-72
2022/10/31 05:39:42;;;;;;;15.90;9.52;;;;;;;12.13;90.29;101585.34;5046384;28;20060;-72
2022/10/31 05:42:08;;;;;;;20.02;10.27;;;;;;;12.52;87.49;101583.56;5047370;28;20045;-72
2022/10/31 05:44:35;;;;;;;16.92;10.27;;;;;;;12.18;87.37;101572.88;5047576;28;20048;-72
2022/10/31 05:47:01;;;;;;;17.75;10.30;;;;;;;12.34;87.67;101576.50;5047926;28;20045;-72
2022/10/31 05:49:28;;;;;;;17.30;9.20;;;;;;;12.62;85.98;101578.72;5046397;28;20052;-72
2022/10/31 05:51:55;;;;;;;21.58;9.52;;;;;;;12.29;86.32;101572.38;5045714;28;20044;-72
2022/10/31 05:54:22;;;;;;;19.33;10.00;;;;;;;12.22;86.34;101574.44;5045961;28;20033;-72
2022/10/31 05:56:48;;;;;;;14.85;9.43;;;;;;;12.64;83.95;101575.06;5048146;28;20459;-71
2022/10/31 05:59:15;;;;;;;16.30;10.20;;;;;;;12.72;82.85;101573.84;5046573;28;20408;-72
2022/10/31 06:01:41;;;;;;;17.48;9.15;;;;;;;12.75;83.16;101579.00;5053932;28;20052;-72
2022/10/31 06:04:08;;;;;;;17.15;9.82;;;;;;;12.88;81.72;101574.84;5047726;28;20044;-72
2022/10/31 06:06:34;;;;;;;18.88;10.65;;;;;;;12.75;82.47;101581.63;5047060;28;20068;-72
2022/10/31 06:09:02;;;;;;;21.13;10.32;;;;;;;12.80;82.13;101584.88;5046023;28;20048;-72
2022/10/31 06:11:28;;;;;;;25.23;11.90;;;;;;;12.86;82.55;101595.13;5047649;28;20467;-72
2022/10/31 06:13:55;;;;;;;23.35;12.95;;;;;;;13.08;82.87;101590.56;5047194;28;20041;-72
2022/10/31 06:16:21;;;;;;;26.65;14.07;;;;;;;13.08;84.18;101588.75;5046163;28;20060;-72
2022/10/31 06:18:48;;;;;;;34.17;15.27;;;;;;;12.85;86.42;101601.31;5046903;28;20056;-72
2022/10/31 06:21:14;;;;;;;41.67;18.25;;;;;;;13.20;85.81;101604.91;5045819;28;20045;-72
2022/10/31 06:23:41;;;;;;;37.92;17.40;;;;;;;13.00;87.20;101597.97;5045646;28;20049;-72
2022/10/31 06:26:08;;;;;;;37.30;16.42;;;;;;;12.66;90.27;101591.66;5047630;28;20053;-72
2022/10/31 06:28:35;;;;;;;32.72;15.45;;;;;;;12.95;90.23;101594.69;5054649;28;20156;-72
2022/10/31 06:31:01;;;;;;;24.13;13.30;;;;;;;13.25;87.41;101598.50;5045661;28;20045;-72
2022/10/31 06:33:28;;;;;;;28.85;13.40;;;;;;;13.50;86.19;101599.00;5046518;28;20051;-72
2022/10/31 06:35:54;;;;;;;24.48;12.38;;;;;;;13.44;85.08;101601.09;5047440;28;20484;-72
2022/10/31 06:38:21;;;;;;;23.58;12.00;;;;;;;13.56;84.32;101601.31;5046858;28;20048;-72
2022/10/31 06:40:47;;;;;;;21.65;12.18;;;;;;;13.75;83.90;101600.38;5046604;28;20064;-72
2022/10/31 06:43:15;;;;;;;24.98;11.82;;;;;;;13.79;83.78;101612.47;5044918;28;20045;-72
2022/10/31 06:45:41;;;;;;;25.48;12.65;;;;;;;14.02;83.49;101609.50;5048266;28;20061;-73
2022/10/31 06:48:08;;;;;;;26.00;13.00;;;;;;;13.88;84.05;101620.78;5046557;28;20552;-73
2022/10/31 06:50:34;;;;;;;27.98;13.00;;;;;;;14.08;83.81;101619.72;5044018;28;20055;-73
2022/10/31 06:53:01;;;;;;;27.33;13.13;;;;;;;14.07;83.85;101626.81;5046519;28;20053;-73
2022/10/31 06:55:28;;;;;;;23.15;13.88;;;;;;;13.86;85.38;101629.66;5046247;28;20049;-73
2022/10/31 06:57:55;;;;;;;40.97;16.67;;;;;;;13.99;87.77;101638.66;5045263;28;20045;-73
2022/10/31 07:00:23;;;;;;;62.15;22.63;;;;;;;14.41;87.17;101644.34;5047167;28;20040;-73
2022/10/31 07:02:56;;;;;;;115.82;30.13;;;;;;;14.63;91.20;101654.63;5048974;28;20053;-73
2022/10/31 07:05:23;;;;;;;109.22;30.65;;;;;;;14.82;90.88;101641.28;5041113;28;20497;-73
2022/10/31 07:07:53;;;;;;;121.10;31.40;;;;;;;14.95;90.29;101644.94;5046257;28;20041;-73
2022/10/31 07:10:20;;;;;;;124.85;32.38;;;;;;;14.95;91.58;101655.50;5045916;28;20053;-73
2022/10/31 07:12:46;;;;;;;119.00;33.15;;;;;;;14.63;93.40;101652.81;5044427;28;20052;-73
2022/10/31 07:15:13;;;;;;;125.88;32.28;;;;;;;15.13;92.75;101656.25;5046493;28;20044;-73
2022/10/31 07:17:41;;;;;;;128.68;33.10;;;;;;;15.10;92.29;101654.66;5047335;28;20037;-74
2022/10/31 07:20:08;;;;;;;138.18;35.33;;;;;;;15.46;91.98;101660.50;5045326;28;20044;-73
2022/10/31 07:22:35;;;;;;;148.32;34.72;;;;;;;15.56;92.36;101664.34;5045774;28;20421;-73
2022/10/31 07:25:01;;;;;;;155.38;37.85;;;;;;;15.81;91.16;101657.63;5045397;28;20049;-73
2022/10/31 07:27:28;;;;;;;161.40;37.17;;;;;;;15.66;92.99;101659.38;5044702;28;20497;-74
2022/10/31 07:29:54;;;;;;;164.70;37.50;;;;;;;15.61;94.42;101661.44;5045499;28;20068;-74
2022/10/31 07:32:21;;;;;;;165.93;38.75;;;;;;;15.69;94.83;101664.50;5046912;28;20052;-67
2022/10/31 07:34:49;;;;;;;191.73;39.30;;;;;;;15.76;94.19;101670.28;5044895;28;20037;-67
2022/10/31 07:37:15;;;;;;;193.27;40.17;;;;;;;16.14;92.42;101660.94;5045205;28;20044;-67
2022/10/31 07:39:41;;;;;;;189.02;40.17;;;;;;;16.04;94.26;101659.75;5045893;28;20492;-67
2022/10/31 07:42:08;;;;;;;183.85;38.97;;;;;;;16.18;93.69;101672.16;5045994;28;20523;-66
2022/10/31 07:44:34;;;;;;;167.90;38.63;;;;;;;16.13;94.35;101676.88;5046071;28;20060;-66
2022/10/31 07:47:01;;;;;;;181.60;39.75;;;;;;;16.11;94.50;101670.84;5045567;28;20053;-66
2022/10/31 07:49:27;;;;;;;193.85;40.45;;;;;;;16.60;93.02;101679.31;5039006;28;20056;-66
2022/10/31 07:51:55;;;;;;;175.15;39.25;;;;;;;16.67;92.27;101677.97;5043643;28;20052;-66
2022/10/31 07:54:22;;;;;;;176.77;38.85;;;;;;;16.84;91.71;101667.19;5046406;28;20049;-67
2022/10/31 07:56:48;;;;;;;158.50;37.80;;;;;;;17.01;90.76;101662.53;5041154;28;20404;-67
2022/10/31 07:59:15;;;;;;;160.65;38.67;;;;;;;16.83;92.11;101673.44;5044805;28;20036;-66
2022/10/31 08:01:41;;;;;;;147.02;35.42;;;;;;;16.99;91.82;101672.38;5050399;28;20053;-66
2022/10/31 08:04:08;;;;;;;162.02;36.10;;;;;;;17.20;90.55;101667.50;5040437;28;20071;-67
2022/10/31 08:06:35;;;;;;;166.38;36.15;;;;;;;17.40;90.11;101669.72;5045095;28;20056;-67
2022/10/31 08:09:02;;;;;;;148.35;34.88;;;;;;;17.49;89.26;101666.44;5044298;28;20128;-67
2022/10/31 08:11:29;;;;;;;153.30;36.17;;;;;;;17.73;88.03;101677.28;5044446;28;20505;-67
2022/10/31 08:13:55;;;;;;;147.63;35.88;;;;;;;17.83;87.84;101681.00;5046382;28;20044;-67
2022/10/31 08:16:22;;;;;;;149.73;35.45;;;;;;;17.65;87.61;101670.78;5049803;28;20048;-67
2022/10/31 08:18:48;;;;;;;146.00;35.88;;;;;;;17.77;87.88;101672.63;5048314;28;20493;-67
2022/10/31 08:21:15;;;;;;;129.13;34.75;;;;;;;17.65;88.85;101668.13;5049412;28;20060;-66
2022/10/31 08:23:41;;;;;;;135.18;34.65;;;;;;;17.67;88.93;101672.34;5049771;28;20061;-66
2022/10/31 08:26:09;;;;;;;139.80;33.88;;;;;;;17.60;88.47;101662.25;5047926;28;20509;-66
2022/10/31 08:28:35;;;;;;;122.03;33.70;;;;;;;17.63;88.85;101668.19;5049353;28;20500;-67
2022/10/31 08:31:02;;;;;;;129.98;33.80;;;;;;;17.58;88.57;101674.78;5053646;28;20049;-67
2022/10/31 08:33:28;;;;;;;125.35;33.05;;;;;;;17.79;87.75;101666.25;5051115;28;20049;-66
2022/10/31 08:35:55;;;;;;;129.13;32.65;;;;;;;18.02;87.17;101670.00;5049805;28;20489;-66
2022/10/31 08:38:21;;;;;;;131.82;34.15;;;;;;;17.87;87.67;101665.72;5048410;28;20638;-67
2022/10/31 08:40:49;;;;;;;131.32;33.85;;;;;;;17.86;88.70;101667.53;5048174;28;20666;-67
2022/10/31 08:43:18;;;;;;;117.60;32.97;;;;;;;17.96;89.04;101671.25;5050136;28;20068;-67
2022/10/31 08:45:48;;;;;;;107.47;31.77;;;;;;;17.89;88.34;101671.75;5048434;28;20053;-67
2022/10/31 08:48:16;;;;;;;110.03;30.63;;;;;;;18.18;86.93;101670.63;5047371;28;20049;-66
2022/10/31 08:50:45;;;;;;;108.05;32.25;;;;;;;18.30;86.43;101661.84;5047342;28;20512;-67
2022/10/31 08:53:13;;;;;;;105.13;29.60;;;;;;;18.11;87.39;101658.75;5048589;28;20345;-67
2022/10/31 08:55:41;;;;;;;96.95;30.15;;;;;;;18.18;87.61;101659.19;5047476;28;20048;-67
2022/10/31 08:58:10;;;;;;;109.68;31.42;;;;;;;18.16;87.93;101651.31;5046948;28;20037;-67
2022/10/31 09:00:39;;;;;;;92.47;29.05;;;;;;;18.32;87.13;101657.28;5035202;28;20041;-67
2022/10/31 09:03:09;;;;;;;94.88;29.10;;;;;;;18.45;86.49;101657.25;5048121;28;20037;-67
2022/10/31 09:05:36;;;;;;;84.68;28.48;;;;;;;18.46;85.78;101651.84;5047745;28;20049;-67
2022/10/31 09:08:05;;;;;;;85.88;27.85;;;;;;;18.42;86.17;101658.34;5047463;28;20098;-66
2022/10/31 09:10:34;;;;;;;87.00;29.27;;;;;;;18.07;87.51;101659.06;5048492;28;20037;-66
2022/10/31 09:13:05;;;;;;;89.15;27.63;;;;;;;18.22;87.19;101645.56;5048023;28;20132;-66
2022/10/31 09:15:33;;;;;;;89.45;28.88;;;;;;;18.06;87.70;101646.75;5047589;28;20045;-66
2022/10/31 09:18:01;;;;;;;88.80;29.20;;;;;;;18.25;87.26;101656.00;5047865;28;20045;-65
2022/10/31 09:20:28;;;;;;;83.95;27.92;;;;;;;18.15;86.82;101662.88;5048710;28;20080;-65
2022/10/31 09:22:59;;;;;;;92.60;29.33;;;;;;;18.35;86.47;101658.88;5047598;28;20052;-66
2022/10/31 09:25:25;;;;;;;80.20;27.42;;;;;;;18.37;86.50;101654.28;5047277;28;20053;-66
2022/10/31 09:27:56;;;;;;;95.78;29.63;;;;;;;18.49;85.61;101651.63;5048302;28;20041;-66
2022/10/31 09:30:22;;;;;;;88.25;28.88;;;;;;;18.61;85.15;101651.75;5048222;28;20122;-66
2022/10/31 09:32:49;;;;;;;84.15;29.60;;;;;;;18.59;85.53;101643.88;5054895;28;20382;-66
2022/10/31 09:35:16;;;;;;;81.68;28.63;;;;;;;18.65;84.93;101642.63;5049083;28;20051;-66
2022/10/31 09:37:43;;;;;;;90.95;29.40;;;;;;;18.58;85.07;101646.66;5047365;28;20061;-66
2022/10/31 09:40:10;;;;;;;88.15;28.85;;;;;;;18.64;84.85;101662.16;5045371;28;20057;-66
2022/10/31 09:42:55;;;;;;;83.57;28.40;;;;;;;18.33;85.73;101655.44;5048673;28;20071;-66
2022/10/31 09:45:27;;;;;;;74.70;27.83;;;;;;;18.64;85.21;101651.53;5047837;28;20263;-66
2022/10/31 09:48:08;;;;;;;77.90;28.23;;;;;;;18.66;84.69;101644.31;5049289;28;20053;-66
2022/10/31 09:50:42;;;;;;;93.05;29.88;;;;;;;18.78;84.32;101651.41;5046953;28;20041;-66
2022/10/31 09:53:14;;;;;;;92.15;29.50;;;;;;;18.65;84.07;101653.25;5030945;28;20511;-66
2022/10/31 09:55:43;;;;;;;88.78;28.45;;;;;;;18.75;84.00;101654.28;5048109;28;20489;-66
2022/10/31 09:58:16;;;;;;;77.97;28.15;;;;;;;18.77;83.20;101657.69;5045447;28;20071;-65
2022/10/31 10:00:45;;;;;;;80.20;28.33;;;;;;;18.93;83.22;101655.63;5046117;28;20057;-65
2022/10/31 10:03:19;;;;;;;73.43;27.85;;;;;;;19.12;82.25;101660.44;5047107;28;20064;-65
2022/10/31 10:05:54;;;;;;;89.13;29.70;;;;;;;18.95;82.60;101659.03;5047616;28;20060;-66
2022/10/31 10:08:24;;;;;;;78.80;28.67;;;;;;;18.93;82.42;101666.25;5046787;28;20455;-66
2022/10/31 10:10:55;;;;;;;73.65;27.10;;;;;;;18.58;83.42;101660.81;5046839;28;20048;-66
2022/10/31 10:13:41;;;;;;;69.60;27.00;;;;;;;18.67;83.60;101661.94;5047127;28;20063;-66
2022/10/31 10:16:22;;;;;;;74.25;28.65;;;;;;;18.80;82.19;101662.78;5048182;28;20099;-66
2022/10/31 10:19:01;;;;;;;66.75;27.67;;;;;;;18.93;80.92;101663.59;5047360;28;20488;-66
2022/10/31 10:21:42;;;;;;;83.13;28.13;;;;;;;18.94;81.48;101663.50;5047812;28;20107;-66
2022/10/31 10:24:24;;;;;;;87.43;28.52;;;;;;;18.57;83.54;101661.75;5045847;28;20404;-66
2022/10/31 10:27:04;;;;;;;66.63;26.95;;;;;;;18.58;84.05;101663.47;5046054;28;20047;-66
2022/10/31 10:29:37;;;;;;;69.55;25.77;;;;;;;18.60;83.56;101661.53;5045953;28;20053;-66
2022/10/31 10:32:10;;;;;;;75.88;27.90;;;;;;;18.89;83.54;101667.41;5045230;28;20045;-66
2022/10/31 10:34:45;;;;;;;88.38;28.05;;;;;;;18.90;82.31;101663.81;5047263;28;20490;-66
2022/10/31 10:37:24;;;;;;;70.70;27.23;;;;;;;18.17;84.88;101654.81;5047731;28;20124;-67
2022/10/31 10:39:55;;;;;;;67.93;26.88;;;;;;;18.30;85.18;101661.84;5046352;28;20052;-66
2022/10/31 10:48:09;;;;;;;68.47;26.70;;;;;;;18.48;84.47;101652.56;5044826;28;20072;-66
2022/10/31 10:50:40;;;;;;;67.05;26.80;;;;;;;18.45;84.76;101647.50;5043789;28;20045;-66
2022/10/31 10:53:21;;;;;;;76.57;26.80;;;;;;;18.73;83.98;101645.56;5045074;28;20052;-66
2022/10/31 10:55:56;;;;;;;67.53;26.33;;;;;;;18.78;83.13;101654.06;5046525;28;20048;-66
2022/10/31 10:58:23;;;;;;;70.70;26.08;;;;;;;18.69;82.24;101646.75;5046774;28;20052;-66
2022/10/31 11:00:50;;;;;;;68.05;26.63;;;;;;;19.05;80.94;101644.09;5043340;28;20052;-66
2022/10/31 11:03:18;;;;;;;72.93;27.42;;;;;;;19.13;80.21;101652.38;5045165;28;20047;-66
2022/10/31 11:05:49;;;;;;;70.57;25.63;;;;;;;18.93;81.64;101647.63;5046031;28;20072;-66
2022/10/31 11:08:26;;;;;;;68.97;26.52;;;;;;;19.13;81.10;101644.41;5045794;28;20049;-66
2022/10/31 11:11:01;;;;;;;73.07;28.85;;;;;;;19.16;81.41;101640.66;5047369;28;20125;-66
2022/10/31 11:13:28;;;;;;;72.00;26.52;;;;;;;19.08;81.62;101637.69;5047454;28;20041;-66
2022/10/31 11:15:59;;;;;;;69.50;27.98;;;;;;;19.19;81.82;101637.75;5046079;28;20052;-66
2022/10/31 11:18:27;;;;;;;70.53;28.45;;;;;;;19.30;80.86;101627.19;5045594;28;20045;-66
2022/10/31 11:20:57;;;;;;;70.68;27.08;;;;;;;19.31;81.13;101623.56;5045571;28;20037;-66
2022/10/31 11:23:27;;;;;;;71.43;27.33;;;;;;;19.13;81.64;101622.28;5044484;28;20049;-66
2022/10/31 11:25:57;;;;;;;74.22;28.02;;;;;;;19.07;82.57;101628.06;5043054;28;20049;-67